sensor_id;sensor_type;location;lat;lon;timestamp;pressure;altitude;pressure_sealevel;temperature;humidity
78409;BME280;67697;50.750;-3.270;2023-07-31T00:00:56;100260.47;;;15.44;90.91
78409;BME280;67697;50.750;-3.270;2023-07-31T00:03:21;100255.79;;;15.33;91.25
78409;BME280;67697;50.750;-3.270;2023-07-31T00:05:47;100253.83;;;15.31;91.67
78409;BME280;67697;50.750;-3.270;2023-07-31T00:10:39;100249.84;;;15.48;90.15
78409;BME280;67697;50.750;-3.270;2023-07-31T00:13:04;100246.83;;;15.44;90.09
78409;BME280;67697;50.750;-3.270;2023-07-31T00:15:30;100251.32;;;15.47;89.82
78409;BME280;67697;50.750;-3.270;2023-07-31T00:17:55;100254.82;;;15.69;89.31
78409;BME280;67697;50.750;-3.270;2023-07-31T00:20:21;100253.50;;;15.58;90.21
78409;BME280;67697;50.750;-3.270;2023-07-31T00:22:46;100240.60;;;15.57;89.76
78409;BME280;67697;50.750;-3.270;2023-07-31T00:25:11;100239.94;;;15.78;88.61
78409;BME280;67697;50.750;-3.270;2023-07-31T00:27:37;100241.60;;;15.40;89.28
78409;BME280;67697;50.750;-3.270;2023-07-31T00:30:05;100241.24;;;15.90;88.70
78409;BME280;67697;50.750;-3.270;2023-07-31T00:32:29;100237.58;;;15.95;87.66
78409;BME280;67697;50.750;-3.270;2023-07-31T00:34:54;100231.60;;;16.09;87.13
78409;BME280;67697;50.750;-3.270;2023-07-31T00:37:19;100230.68;;;16.16;87.33
78409;BME280;67697;50.750;-3.270;2023-07-31T00:39:45;100223.87;;;16.17;86.69
78409;BME280;67697;50.750;-3.270;2023-07-31T00:42:10;100227.04;;;16.33;85.91
78409;BME280;67697;50.750;-3.270;2023-07-31T00:44:35;100221.06;;;15.88;87.61
78409;BME280;67697;50.750;-3.270;2023-07-31T00:47:03;100217.39;;;15.94;87.26
78409;BME280;67697;50.750;-3.270;2023-07-31T00:49:27;100214.81;;;16.56;87.04
78409;BME280;67697;50.750;-3.270;2023-07-31T00:51:52;100213.81;;;16.09;88.53
78409;BME280;67697;50.750;-3.270;2023-07-31T00:54:17;100211.08;;;15.93;89.42
78409;BME280;67697;50.750;-3.270;2023-07-31T00:56:45;100207.73;;;15.97;89.20
78409;BME280;67697;50.750;-3.270;2023-07-31T00:59:09;100207.79;;;16.26;88.77
78409;BME280;67697;50.750;-3.270;2023-07-31T01:01:34;100208.15;;;16.07;88.27
78409;BME280;67697;50.750;-3.270;2023-07-31T01:04:00;100214.16;;;16.15;89.02
78409;BME280;67697;50.750;-3.270;2023-07-31T01:06:36;100204.59;;;16.19;88.57
78409;BME280;67697;50.750;-3.270;2023-07-31T01:08:57;100205.16;;;16.59;87.31
78409;BME280;67697;50.750;-3.270;2023-07-31T01:11:21;100198.73;;;16.53;87.99
78409;BME280;67697;50.750;-3.270;2023-07-31T01:13:42;100196.85;;;16.58;88.46
78409;BME280;67697;50.750;-3.270;2023-07-31T01:16:07;100191.83;;;16.03;88.68
78409;BME280;67697;50.750;-3.270;2023-07-31T01:18:33;100195.50;;;15.73;89.55
78409;BME280;67697;50.750;-3.270;2023-07-31T01:21:06;100188.04;;;16.26;87.43
78409;BME280;67697;50.750;-3.270;2023-07-31T01:23:37;100189.51;;;16.12;87.20
78409;BME280;67697;50.750;-3.270;2023-07-31T01:25:56;100183.48;;;16.30;86.71
78409;BME280;67697;50.750;-3.270;2023-07-31T01:28:20;100181.82;;;16.34;87.37
78409;BME280;67697;50.750;-3.270;2023-07-31T01:30:44;100174.94;;;16.44;87.10
78409;BME280;67697;50.750;-3.270;2023-07-31T01:33:06;100172.65;;;16.21;89.37
78409;BME280;67697;50.750;-3.270;2023-07-31T01:35:31;100172.54;;;16.12;89.36
78409;BME280;67697;50.750;-3.270;2023-07-31T01:37:58;100164.68;;;16.16;88.47
78409;BME280;67697;50.750;-3.270;2023-07-31T01:40:24;100153.72;;;16.41;87.80
78409;BME280;67697;50.750;-3.270;2023-07-31T01:42:49;100152.63;;;15.86;88.20
78409;BME280;67697;50.750;-3.270;2023-07-31T01:45:14;100150.73;;;16.31;87.78
78409;BME280;67697;50.750;-3.270;2023-07-31T01:47:40;100145.92;;;16.39;85.61
78409;BME280;67697;50.750;-3.270;2023-07-31T01:50:06;100139.87;;;16.44;84.73
78409;BME280;67697;50.750;-3.270;2023-07-31T01:52:30;100141.44;;;16.92;84.33
78409;BME280;67697;50.750;-3.270;2023-07-31T01:54:56;100145.99;;;16.55;85.66
78409;BME280;67697;50.750;-3.270;2023-07-31T01:57:22;100142.46;;;16.33;86.22
78409;BME280;67697;50.750;-3.270;2023-07-31T01:59:47;100146.63;;;16.38;87.29
78409;BME280;67697;50.750;-3.270;2023-07-31T02:02:13;100138.25;;;16.22;86.93
78409;BME280;67697;50.750;-3.270;2023-07-31T02:04:38;100138.68;;;16.06;88.16
78409;BME280;67697;50.750;-3.270;2023-07-31T02:07:04;100132.04;;;16.05;87.94
78409;BME280;67697;50.750;-3.270;2023-07-31T02:09:29;100129.40;;;16.30;87.76
78409;BME280;67697;50.750;-3.270;2023-07-31T02:11:54;100127.21;;;16.33;85.62
78409;BME280;67697;50.750;-3.270;2023-07-31T02:14:20;100124.51;;;16.75;84.34
78409;BME280;67697;50.750;-3.270;2023-07-31T02:16:46;100124.46;;;16.79;84.23
78409;BME280;67697;50.750;-3.270;2023-07-31T02:19:11;100120.27;;;16.84;83.36
78409;BME280;67697;50.750;-3.270;2023-07-31T02:21:37;100118.30;;;17.06;83.09
78409;BME280;67697;50.750;-3.270;2023-07-31T02:24:03;100115.32;;;16.35;85.16
78409;BME280;67697;50.750;-3.270;2023-07-31T02:26:28;100109.50;;;16.67;85.04
78409;BME280;67697;50.750;-3.270;2023-07-31T02:28:53;100106.45;;;16.75;83.35
78409;BME280;67697;50.750;-3.270;2023-07-31T02:31:19;100099.15;;;16.89;82.87
78409;BME280;67697;50.750;-3.270;2023-07-31T02:33:49;100094.68;;;16.77;83.89
78409;BME280;67697;50.750;-3.270;2023-07-31T02:36:10;100092.58;;;16.53;81.84
78409;BME280;67697;50.750;-3.270;2023-07-31T02:38:35;100095.55;;;17.09;80.93
78409;BME280;67697;50.750;-3.270;2023-07-31T02:41:01;100100.79;;;16.98;80.89
78409;BME280;67697;50.750;-3.270;2023-07-31T02:43:26;100096.53;;;17.60;78.50
78409;BME280;67697;50.750;-3.270;2023-07-31T02:45:52;100091.16;;;17.16;79.18
78409;BME280;67697;50.750;-3.270;2023-07-31T02:48:18;100088.80;;;17.47;78.49
78409;BME280;67697;50.750;-3.270;2023-07-31T02:50:43;100088.25;;;18.48;74.35
78409;BME280;67697;50.750;-3.270;2023-07-31T02:53:09;100083.62;;;18.38;73.65
78409;BME280;67697;50.750;-3.270;2023-07-31T02:55:34;100076.47;;;18.07;75.78
78409;BME280;67697;50.750;-3.270;2023-07-31T02:57:59;100076.66;;;17.40;77.82
78409;BME280;67697;50.750;-3.270;2023-07-31T03:00:25;100070.54;;;17.47;78.10
78409;BME280;67697;50.750;-3.270;2023-07-31T03:02:51;100067.76;;;17.17;80.71
78409;BME280;67697;50.750;-3.270;2023-07-31T03:05:17;100065.11;;;16.94;82.60
78409;BME280;67697;50.750;-3.270;2023-07-31T03:07:42;100067.01;;;17.01;83.31
78409;BME280;67697;50.750;-3.270;2023-07-31T03:10:08;100062.46;;;16.55;84.85
78409;BME280;67697;50.750;-3.270;2023-07-31T03:12:33;100060.17;;;16.83;84.27
78409;BME280;67697;50.750;-3.270;2023-07-31T03:14:58;100059.18;;;16.81;84.15
78409;BME280;67697;50.750;-3.270;2023-07-31T03:17:24;100057.59;;;16.14;85.51
78409;BME280;67697;50.750;-3.270;2023-07-31T03:19:50;100057.65;;;16.44;85.85
78409;BME280;67697;50.750;-3.270;2023-07-31T03:22:15;100062.45;;;17.01;83.80
78409;BME280;67697;50.750;-3.270;2023-07-31T03:24:40;100065.43;;;17.05;83.53
78409;BME280;67697;50.750;-3.270;2023-07-31T03:27:12;100067.80;;;16.68;83.63
78409;BME280;67697;50.750;-3.270;2023-07-31T03:29:31;100066.28;;;16.41;84.53
78409;BME280;67697;50.750;-3.270;2023-07-31T03:31:57;100066.26;;;17.02;84.19
78409;BME280;67697;50.750;-3.270;2023-07-31T03:34:22;100065.22;;;16.68;84.76
78409;BME280;67697;50.750;-3.270;2023-07-31T03:36:48;100062.63;;;16.52;84.87
78409;BME280;67697;50.750;-3.270;2023-07-31T03:39:14;100059.53;;;16.18;85.90
78409;BME280;67697;50.750;-3.270;2023-07-31T03:41:39;100056.68;;;16.69;84.91
78409;BME280;67697;50.750;-3.270;2023-07-31T03:44:04;100052.82;;;16.83;82.95
78409;BME280;67697;50.750;-3.270;2023-07-31T03:46:30;100057.07;;;16.44;85.08
78409;BME280;67697;50.750;-3.270;2023-07-31T03:48:56;100053.10;;;16.54;84.99
78409;BME280;67697;50.750;-3.270;2023-07-31T03:51:21;100051.39;;;16.89;83.67
78409;BME280;67697;50.750;-3.270;2023-07-31T03:53:46;100056.64;;;16.73;84.26
78409;BME280;67697;50.750;-3.270;2023-07-31T03:56:12;100048.28;;;16.67;84.54
78409;BME280;67697;50.750;-3.270;2023-07-31T03:58:37;100046.78;;;16.61;85.01
78409;BME280;67697;50.750;-3.270;2023-07-31T04:01:04;100044.93;;;16.83;82.54
78409;BME280;67697;50.750;-3.270;2023-07-31T04:03:29;100035.48;;;16.63;83.08
78409;BME280;67697;50.750;-3.270;2023-07-31T04:05:55;100035.47;;;16.70;84.27
78409;BME280;67697;50.750;-3.270;2023-07-31T04:08:21;100042.27;;;16.42;84.19
78409;BME280;67697;50.750;-3.270;2023-07-31T04:10:45;100041.40;;;16.36;84.63
78409;BME280;67697;50.750;-3.270;2023-07-31T04:13:11;100042.17;;;16.19;83.98
78409;BME280;67697;50.750;-3.270;2023-07-31T04:15:36;100042.60;;;16.94;82.27
78409;BME280;67697;50.750;-3.270;2023-07-31T04:18:04;100036.85;;;17.06;81.90
78409;BME280;67697;50.750;-3.270;2023-07-31T04:20:28;100034.76;;;16.85;81.65
78409;BME280;67697;50.750;-3.270;2023-07-31T04:22:52;100038.18;;;16.61;83.23
78409;BME280;67697;50.750;-3.270;2023-07-31T04:25:18;100033.24;;;17.03;82.23
78409;BME280;67697;50.750;-3.270;2023-07-31T04:27:44;100028.93;;;16.85;81.91
78409;BME280;67697;50.750;-3.270;2023-07-31T04:30:09;100021.73;;;16.93;82.56
78409;BME280;67697;50.750;-3.270;2023-07-31T04:32:35;100025.18;;;16.79;83.45
78409;BME280;67697;50.750;-3.270;2023-07-31T04:35:00;100029.48;;;17.03;82.70
78409;BME280;67697;50.750;-3.270;2023-07-31T04:37:26;100031.48;;;16.59;84.44
78409;BME280;67697;50.750;-3.270;2023-07-31T04:39:51;100033.03;;;16.72;85.12
78409;BME280;67697;50.750;-3.270;2023-07-31T04:42:17;100028.08;;;16.65;84.44
78409;BME280;67697;50.750;-3.270;2023-07-31T04:44:42;100025.62;;;16.90;82.86
78409;BME280;67697;50.750;-3.270;2023-07-31T04:47:09;100034.30;;;16.66;84.00
78409;BME280;67697;50.750;-3.270;2023-07-31T04:49:33;100035.79;;;17.20;83.11
78409;BME280;67697;50.750;-3.270;2023-07-31T04:51:59;100031.37;;;16.73;84.36
78409;BME280;67697;50.750;-3.270;2023-07-31T04:54:24;100029.32;;;16.66;85.12
78409;BME280;67697;50.750;-3.270;2023-07-31T04:56:50;100026.31;;;17.22;83.16
78409;BME280;67697;50.750;-3.270;2023-07-31T04:59:15;100030.02;;;16.85;85.12
78409;BME280;67697;50.750;-3.270;2023-07-31T05:01:41;100032.07;;;16.82;85.24
78409;BME280;67697;50.750;-3.270;2023-07-31T05:06:33;100036.35;;;17.59;82.25
78409;BME280;67697;50.750;-3.270;2023-07-31T05:08:58;100028.14;;;17.41;83.76
78409;BME280;67697;50.750;-3.270;2023-07-31T05:11:23;100026.23;;;16.99;84.74
78409;BME280;67697;50.750;-3.270;2023-07-31T05:13:50;100017.59;;;17.18;83.63
78409;BME280;67697;50.750;-3.270;2023-07-31T05:16:14;100017.23;;;17.46;82.47
78409;BME280;67697;50.750;-3.270;2023-07-31T05:18:39;100017.74;;;17.78;82.43
78409;BME280;67697;50.750;-3.270;2023-07-31T05:21:05;100007.75;;;17.61;81.31
78409;BME280;67697;50.750;-3.270;2023-07-31T05:23:30;100014.08;;;17.31;83.61
78409;BME280;67697;50.750;-3.270;2023-07-31T05:26:03;100019.01;;;17.57;82.38
78409;BME280;67697;50.750;-3.270;2023-07-31T05:28:25;100021.44;;;17.03;84.66
78409;BME280;67697;50.750;-3.270;2023-07-31T05:30:48;100016.13;;;16.40;88.47
78409;BME280;67697;50.750;-3.270;2023-07-31T05:33:13;100015.83;;;16.63;88.08
78409;BME280;67697;50.750;-3.270;2023-07-31T05:35:38;100013.87;;;16.71;87.37
78409;BME280;67697;50.750;-3.270;2023-07-31T05:38:04;100016.74;;;16.41;89.49
78409;BME280;67697;50.750;-3.270;2023-07-31T05:40:32;100016.91;;;17.46;85.61
78409;BME280;67697;50.750;-3.270;2023-07-31T05:42:55;100014.39;;;17.15;85.84
78409;BME280;67697;50.750;-3.270;2023-07-31T05:45:20;100019.21;;;16.75;86.67
78409;BME280;67697;50.750;-3.270;2023-07-31T05:47:46;100021.32;;;17.14;85.27
78409;BME280;67697;50.750;-3.270;2023-07-31T05:50:11;100026.43;;;17.28;84.42
78409;BME280;67697;50.750;-3.270;2023-07-31T05:52:37;100026.71;;;17.79;81.90
78409;BME280;67697;50.750;-3.270;2023-07-31T05:55:03;100037.42;;;17.04;83.71
78409;BME280;67697;50.750;-3.270;2023-07-31T05:57:28;100045.21;;;16.85;83.79
78409;BME280;67697;50.750;-3.270;2023-07-31T05:59:58;100048.43;;;16.46;82.74
78409;BME280;67697;50.750;-3.270;2023-07-31T06:02:19;100055.77;;;16.46;82.57
78409;BME280;67697;50.750;-3.270;2023-07-31T06:04:44;100061.97;;;16.34;83.53
78409;BME280;67697;50.750;-3.270;2023-07-31T06:09:36;100065.84;;;16.00;82.64
78409;BME280;67697;50.750;-3.270;2023-07-31T06:12:01;100058.72;;;16.24;81.05
78409;BME280;67697;50.750;-3.270;2023-07-31T06:14:26;100059.82;;;16.43;80.60
78409;BME280;67697;50.750;-3.270;2023-07-31T06:16:52;100052.84;;;16.66;80.48
78409;BME280;67697;50.750;-3.270;2023-07-31T06:19:17;100048.00;;;16.46;80.91
78409;BME280;67697;50.750;-3.270;2023-07-31T06:21:44;100041.47;;;16.63;78.61
78409;BME280;67697;50.750;-3.270;2023-07-31T06:24:08;100035.73;;;17.30;75.92
78409;BME280;67697;50.750;-3.270;2023-07-31T06:26:34;100033.69;;;17.67;76.27
78409;BME280;67697;50.750;-3.270;2023-07-31T06:29:04;100032.38;;;17.81;72.89
78409;BME280;67697;50.750;-3.270;2023-07-31T06:31:25;100031.96;;;18.65;70.24
78409;BME280;67697;50.750;-3.270;2023-07-31T06:33:51;100022.39;;;17.72;72.82
78409;BME280;67697;50.750;-3.270;2023-07-31T06:36:16;100017.14;;;17.78;73.74
78409;BME280;67697;50.750;-3.270;2023-07-31T06:38:41;100013.20;;;17.16;74.11
78409;BME280;67697;50.750;-3.270;2023-07-31T06:41:07;100002.52;;;16.47;76.67
78409;BME280;67697;50.750;-3.270;2023-07-31T06:43:32;100001.00;;;16.59;77.59
78409;BME280;67697;50.750;-3.270;2023-07-31T06:46:04;99995.38;;;16.86;74.89
78409;BME280;67697;50.750;-3.270;2023-07-31T06:48:23;99991.07;;;17.11;73.73
78409;BME280;67697;50.750;-3.270;2023-07-31T06:50:49;99992.07;;;18.34;70.66
78409;BME280;67697;50.750;-3.270;2023-07-31T06:53:14;99988.16;;;18.25;69.65
78409;BME280;67697;50.750;-3.270;2023-07-31T06:55:40;99981.16;;;19.15;67.50
78409;BME280;67697;50.750;-3.270;2023-07-31T06:58:05;99983.50;;;17.71;71.37
78409;BME280;67697;50.750;-3.270;2023-07-31T07:00:32;99981.04;;;17.40;72.06
78409;BME280;67697;50.750;-3.270;2023-07-31T07:02:56;99979.96;;;18.28;68.91
78409;BME280;67697;50.750;-3.270;2023-07-31T07:05:22;99977.36;;;17.79;70.18
78409;BME280;67697;50.750;-3.270;2023-07-31T07:07:49;99975.05;;;17.21;72.48
78409;BME280;67697;50.750;-3.270;2023-07-31T07:10:14;99965.12;;;17.55;72.29
78409;BME280;67697;50.750;-3.270;2023-07-31T07:12:39;99970.63;;;19.01;68.36
78409;BME280;67697;50.750;-3.270;2023-07-31T07:15:05;99982.06;;;18.73;68.48
78409;BME280;67697;50.750;-3.270;2023-07-31T07:17:30;99979.75;;;18.81;68.06
78409;BME280;67697;50.750;-3.270;2023-07-31T07:19:55;99983.69;;;18.75;68.03
78409;BME280;67697;50.750;-3.270;2023-07-31T07:22:20;99981.58;;;19.03;66.18
78409;BME280;67697;50.750;-3.270;2023-07-31T07:24:46;99977.30;;;19.51;65.40
78409;BME280;67697;50.750;-3.270;2023-07-31T07:27:11;99982.50;;;19.26;65.39
78409;BME280;67697;50.750;-3.270;2023-07-31T07:29:39;99992.31;;;18.41;69.22
78409;BME280;67697;50.750;-3.270;2023-07-31T07:32:04;99989.78;;;18.52;67.68
78409;BME280;67697;50.750;-3.270;2023-07-31T07:34:29;99987.24;;;18.68;67.21
78409;BME280;67697;50.750;-3.270;2023-07-31T07:36:59;99981.23;;;18.73;67.24
78409;BME280;67697;50.750;-3.270;2023-07-31T07:39:20;99979.78;;;17.57;70.21
78409;BME280;67697;50.750;-3.270;2023-07-31T07:41:45;99979.61;;;18.41;67.59
78409;BME280;67697;50.750;-3.270;2023-07-31T07:44:11;99977.95;;;17.96;70.71
78409;BME280;67697;50.750;-3.270;2023-07-31T07:46:36;99982.73;;;17.95;70.74
78409;BME280;67697;50.750;-3.270;2023-07-31T07:49:02;99981.71;;;18.34;69.45
78409;BME280;67697;50.750;-3.270;2023-07-31T07:51:27;99974.18;;;19.04;67.13
78409;BME280;67697;50.750;-3.270;2023-07-31T07:53:54;99968.42;;;18.09;71.72
78409;BME280;67697;50.750;-3.270;2023-07-31T07:56:18;99967.52;;;17.89;70.51
78409;BME280;67697;50.750;-3.270;2023-07-31T07:58:43;99952.57;;;17.73;72.72
78409;BME280;67697;50.750;-3.270;2023-07-31T08:03:35;99988.71;;;17.50;72.35
78409;BME280;67697;50.750;-3.270;2023-07-31T08:06:00;99976.32;;;17.74;72.26
78409;BME280;67697;50.750;-3.270;2023-07-31T08:08:26;99975.71;;;18.50;69.74
78409;BME280;67697;50.750;-3.270;2023-07-31T08:10:56;99980.30;;;17.78;69.65
78409;BME280;67697;50.750;-3.270;2023-07-31T08:13:17;99987.45;;;18.42;69.11
78409;BME280;67697;50.750;-3.270;2023-07-31T08:15:41;99999.56;;;18.63;68.34
78409;BME280;67697;50.750;-3.270;2023-07-31T08:18:07;99999.70;;;18.81;68.53
78409;BME280;67697;50.750;-3.270;2023-07-31T08:20:32;99993.12;;;17.84;71.32
78409;BME280;67697;50.750;-3.270;2023-07-31T08:22:58;99994.56;;;18.75;68.28
78409;BME280;67697;50.750;-3.270;2023-07-31T08:25:23;99987.86;;;19.21;65.91
78409;BME280;67697;50.750;-3.270;2023-07-31T08:27:49;99984.91;;;19.02;68.22
78409;BME280;67697;50.750;-3.270;2023-07-31T08:32:40;99971.27;;;19.62;64.70
78409;BME280;67697;50.750;-3.270;2023-07-31T08:35:06;99973.25;;;19.43;66.23
78409;BME280;67697;50.750;-3.270;2023-07-31T08:37:31;99970.57;;;19.39;66.30
78409;BME280;67697;50.750;-3.270;2023-07-31T08:39:56;99971.25;;;20.39;63.04
78409;BME280;67697;50.750;-3.270;2023-07-31T08:42:22;99971.38;;;20.16;62.77
78409;BME280;67697;50.750;-3.270;2023-07-31T08:44:47;99957.63;;;19.76;63.98
78409;BME280;67697;50.750;-3.270;2023-07-31T08:47:13;99951.35;;;19.70;62.49
78409;BME280;67697;50.750;-3.270;2023-07-31T08:49:38;99964.13;;;19.64;63.99
78409;BME280;67697;50.750;-3.270;2023-07-31T08:52:04;99954.98;;;20.18;63.07
78409;BME280;67697;50.750;-3.270;2023-07-31T08:54:29;99958.19;;;19.59;63.00
78409;BME280;67697;50.750;-3.270;2023-07-31T08:56:55;99966.47;;;19.11;65.14
78409;BME280;67697;50.750;-3.270;2023-07-31T08:59:22;99962.91;;;18.54;68.49
78409;BME280;67697;50.750;-3.270;2023-07-31T09:01:50;99955.32;;;20.30;62.76
78409;BME280;67697;50.750;-3.270;2023-07-31T09:04:13;99959.25;;;21.27;59.69
78409;BME280;67697;50.750;-3.270;2023-07-31T09:06:37;99974.84;;;21.16;59.33
78409;BME280;67697;50.750;-3.270;2023-07-31T09:09:03;99960.99;;;21.09;58.63
78409;BME280;67697;50.750;-3.270;2023-07-31T09:11:27;99948.90;;;20.17;61.38
78409;BME280;67697;50.750;-3.270;2023-07-31T09:13:53;99939.00;;;20.58;59.48
78409;BME280;67697;50.750;-3.270;2023-07-31T09:18:54;99919.26;;;21.35;59.01
78409;BME280;67697;50.750;-3.270;2023-07-31T09:21:09;99908.99;;;21.51;59.61
78409;BME280;67697;50.750;-3.270;2023-07-31T09:23:41;99914.41;;;19.88;64.57
78409;BME280;67697;50.750;-3.270;2023-07-31T09:26:00;99922.36;;;20.08;64.23
78409;BME280;67697;50.750;-3.270;2023-07-31T09:28:31;99928.76;;;19.34;67.34
78409;BME280;67697;50.750;-3.270;2023-07-31T09:30:52;99959.71;;;19.07;68.18
78409;BME280;67697;50.750;-3.270;2023-07-31T09:33:18;99966.19;;;19.08;69.38
78409;BME280;67697;50.750;-3.270;2023-07-31T09:35:42;99977.11;;;18.82;71.29
78409;BME280;67697;50.750;-3.270;2023-07-31T09:38:10;99968.23;;;19.42;67.17
78409;BME280;67697;50.750;-3.270;2023-07-31T09:40:35;99964.80;;;19.88;67.97
78409;BME280;67697;50.750;-3.270;2023-07-31T09:43:00;99972.66;;;19.81;67.65
78409;BME280;67697;50.750;-3.270;2023-07-31T09:45:24;99998.35;;;17.71;68.72
78409;BME280;67697;50.750;-3.270;2023-07-31T09:47:50;100006.25;;;18.30;67.52
78409;BME280;67697;50.750;-3.270;2023-07-31T09:50:15;100002.05;;;19.15;65.43
78409;BME280;67697;50.750;-3.270;2023-07-31T09:52:41;99999.35;;;18.98;64.58
78409;BME280;67697;50.750;-3.270;2023-07-31T09:55:07;99996.00;;;19.16;63.34
78409;BME280;67697;50.750;-3.270;2023-07-31T09:57:32;100007.65;;;18.89;62.92
78409;BME280;67697;50.750;-3.270;2023-07-31T09:59:58;100014.78;;;17.89;64.70
78409;BME280;67697;50.750;-3.270;2023-07-31T10:02:23;100019.68;;;18.16;64.29
78409;BME280;67697;50.750;-3.270;2023-07-31T10:04:49;100027.22;;;17.12;67.36
78409;BME280;67697;50.750;-3.270;2023-07-31T10:07:16;100023.89;;;17.02;67.80
78409;BME280;67697;50.750;-3.270;2023-07-31T10:09:39;100019.32;;;17.31;66.72
78409;BME280;67697;50.750;-3.270;2023-07-31T10:12:07;100002.53;;;18.00;64.02
78409;BME280;67697;50.750;-3.270;2023-07-31T10:14:31;99989.85;;;17.80;63.41
78409;BME280;67697;50.750;-3.270;2023-07-31T10:16:57;100001.54;;;18.31;62.43
78409;BME280;67697;50.750;-3.270;2023-07-31T10:19:22;99999.99;;;18.29;62.24
78409;BME280;67697;50.750;-3.270;2023-07-31T10:21:48;99998.25;;;17.30;63.50
78409;BME280;67697;50.750;-3.270;2023-07-31T10:24:13;100008.11;;;18.23;61.99
78409;BME280;67697;50.750;-3.270;2023-07-31T10:26:38;100005.61;;;17.64;64.15
78409;BME280;67697;50.750;-3.270;2023-07-31T10:29:05;100008.27;;;17.43;66.67
78409;BME280;67697;50.750;-3.270;2023-07-31T10:31:29;100009.38;;;17.15;67.12
78409;BME280;67697;50.750;-3.270;2023-07-31T10:33:55;100013.69;;;16.57;70.15
78409;BME280;67697;50.750;-3.270;2023-07-31T10:36:20;100024.37;;;17.18;68.67
78409;BME280;67697;50.750;-3.270;2023-07-31T10:38:49;100028.17;;;16.29;70.49
78409;BME280;67697;50.750;-3.270;2023-07-31T10:41:11;100034.30;;;16.92;70.63
78409;BME280;67697;50.750;-3.270;2023-07-31T10:43:37;100013.26;;;16.86;69.16
78409;BME280;67697;50.750;-3.270;2023-07-31T10:46:06;100025.07;;;17.38;68.33
78409;BME280;67697;50.750;-3.270;2023-07-31T10:48:33;100015.96;;;17.28;69.41
78409;BME280;67697;50.750;-3.270;2023-07-31T10:50:55;99998.25;;;17.73;67.01
78409;BME280;67697;50.750;-3.270;2023-07-31T10:53:24;99998.67;;;18.03;64.61
78409;BME280;67697;50.750;-3.270;2023-07-31T10:55:44;100002.89;;;17.49;66.79
78409;BME280;67697;50.750;-3.270;2023-07-31T10:58:10;99999.39;;;18.01;66.19
78409;BME280;67697;50.750;-3.270;2023-07-31T11:00:37;100002.75;;;17.64;66.66
78409;BME280;67697;50.750;-3.270;2023-07-31T11:03:08;100009.02;;;18.64;63.83
78409;BME280;67697;50.750;-3.270;2023-07-31T11:05:42;99994.55;;;18.04;65.13
78409;BME280;67697;50.750;-3.270;2023-07-31T11:07:52;99991.25;;;18.08;65.90
78409;BME280;67697;50.750;-3.270;2023-07-31T11:10:17;99987.66;;;18.12;66.11
78409;BME280;67697;50.750;-3.270;2023-07-31T11:12:41;99974.27;;;18.38;65.67
78409;BME280;67697;50.750;-3.270;2023-07-31T11:15:08;99972.58;;;17.55;67.65
78409;BME280;67697;50.750;-3.270;2023-07-31T11:17:32;99971.70;;;17.37;65.79
78409;BME280;67697;50.750;-3.270;2023-07-31T11:19:57;99970.84;;;18.39;64.58
78409;BME280;67697;50.750;-3.270;2023-07-31T11:22:23;99959.36;;;19.08;63.26
78409;BME280;67697;50.750;-3.270;2023-07-31T11:24:49;99948.16;;;19.60;62.81
78409;BME280;67697;50.750;-3.270;2023-07-31T11:27:14;99945.30;;;19.32;60.91
78409;BME280;67697;50.750;-3.270;2023-07-31T11:29:39;99950.11;;;19.79;61.60
78409;BME280;67697;50.750;-3.270;2023-07-31T11:34:31;99937.96;;;19.14;62.51
78409;BME280;67697;50.750;-3.270;2023-07-31T11:36:56;99934.95;;;19.41;61.14
78409;BME280;67697;50.750;-3.270;2023-07-31T11:39:21;99959.06;;;18.94;63.26
78409;BME280;67697;50.750;-3.270;2023-07-31T11:41:46;99964.70;;;19.15;63.88
78409;BME280;67697;50.750;-3.270;2023-07-31T11:44:12;99970.40;;;19.14;63.47
78409;BME280;67697;50.750;-3.270;2023-07-31T11:46:38;99982.63;;;18.47;65.69
78409;BME280;67697;50.750;-3.270;2023-07-31T11:49:03;99971.90;;;19.25;64.68
78409;BME280;67697;50.750;-3.270;2023-07-31T11:51:29;99973.12;;;19.34;63.61
78409;BME280;67697;50.750;-3.270;2023-07-31T11:53:57;99969.03;;;18.76;65.42
78409;BME280;67697;50.750;-3.270;2023-07-31T11:56:20;99963.81;;;19.24;66.06
78409;BME280;67697;50.750;-3.270;2023-07-31T11:58:47;99956.69;;;19.10;66.58
78409;BME280;67697;50.750;-3.270;2023-07-31T12:01:10;99945.66;;;19.39;64.70
78409;BME280;67697;50.750;-3.270;2023-07-31T12:03:36;99942.02;;;19.95;63.16
78409;BME280;67697;50.750;-3.270;2023-07-31T12:06:00;99946.10;;;19.73;62.73
78409;BME280;67697;50.750;-3.270;2023-07-31T12:08:26;99947.77;;;19.89;63.90
78409;BME280;67697;50.750;-3.270;2023-07-31T12:10:53;99954.93;;;19.02;64.68
78409;BME280;67697;50.750;-3.270;2023-07-31T12:13:26;99950.22;;;18.00;68.82
78409;BME280;67697;50.750;-3.270;2023-07-31T12:15:44;99955.56;;;17.09;72.09
78409;BME280;67697;50.750;-3.270;2023-07-31T12:18:09;99948.80;;;17.86;72.35
78409;BME280;67697;50.750;-3.270;2023-07-31T12:20:33;99985.45;;;16.89;73.96
78409;BME280;67697;50.750;-3.270;2023-07-31T12:22:59;99986.53;;;17.37;73.67
78409;BME280;67697;50.750;-3.270;2023-07-31T12:25:30;99980.52;;;17.61;72.68
78409;BME280;67697;50.750;-3.270;2023-07-31T12:27:51;99970.25;;;17.04;74.55
78409;BME280;67697;50.750;-3.270;2023-07-31T12:30:27;99958.19;;;16.68;75.42
78409;BME280;67697;50.750;-3.270;2023-07-31T12:32:41;99980.86;;;16.39;77.44
78409;BME280;67697;50.750;-3.270;2023-07-31T12:35:08;99971.55;;;16.46;76.74
78409;BME280;67697;50.750;-3.270;2023-07-31T12:37:33;99972.30;;;15.99;77.81
78409;BME280;67697;50.750;-3.270;2023-07-31T12:39:57;99955.10;;;17.64;72.70
78409;BME280;67697;50.750;-3.270;2023-07-31T12:42:22;99916.58;;;17.08;74.43
78409;BME280;67697;50.750;-3.270;2023-07-31T12:44:47;99916.79;;;16.60;75.72
78409;BME280;67697;50.750;-3.270;2023-07-31T12:47:13;99934.71;;;16.72;76.31
78409;BME280;67697;50.750;-3.270;2023-07-31T12:49:43;99925.61;;;15.99;78.31